sensor_id;sensor_type;location;lat;lon;timestamp;P1;durP1;ratioP1;P2;durP2;ratioP2
8825;SDS011;4449;50.872;4.714;2023-07-16T00:01:09;7.50;;;3.00;;
8825;SDS011;4449;50.872;4.714;2023-07-16T00:03:36;5.20;;;3.08;;
8825;SDS011;4449;50.872;4.714;2023-07-16T00:06:04;4.57;;;3.00;;
8825;SDS011;4449;50.872;4.714;2023-07-16T00:08:32;3.33;;;2.65;;
8825;SDS011;4449;50.872;4.714;2023-07-16T00:10:59;3.70;;;2.53;;
8825;SDS011;4449;50.872;4.714;2023-07-16T00:13:29;6.47;;;2.70;;
8825;SDS011;4449;50.872;4.714;2023-07-16T00:15:56;6.57;;;3.03;;
8825;SDS011;4449;50.872;4.714;2023-07-16T00:18:24;4.60;;;3.20;;
8825;SDS011;4449;50.872;4.714;2023-07-16T00:20:52;8.93;;;2.97;;
8825;SDS011;4449;50.872;4.714;2023-07-16T00:23:19;4.45;;;2.70;;
8825;SDS011;4449;50.872;4.714;2023-07-16T00:25:47;4.55;;;2.90;;
8825;SDS011;4449;50.872;4.714;2023-07-16T00:28:15;4.23;;;2.73;;
8825;SDS011;4449;50.872;4.714;2023-07-16T00:30:44;5.13;;;2.63;;
8825;SDS011;4449;50.872;4.714;2023-07-16T00:33:12;4.55;;;2.42;;
8825;SDS011;4449;50.872;4.714;2023-07-16T00:35:46;5.68;;;2.60;;
8825;SDS011;4449;50.872;4.714;2023-07-16T00:38:13;4.03;;;2.53;;
8825;SDS011;4449;50.872;4.714;2023-07-16T00:40:41;6.20;;;3.20;;
8825;SDS011;4449;50.872;4.714;2023-07-16T00:43:09;3.55;;;2.55;;
8825;SDS011;4449;50.872;4.714;2023-07-16T00:45:37;5.50;;;2.50;;
8825;SDS011;4449;50.872;4.714;2023-07-16T00:48:06;4.60;;;2.40;;
8825;SDS011;4449;50.872;4.714;2023-07-16T00:50:35;4.72;;;2.70;;
8825;SDS011;4449;50.872;4.714;2023-07-16T00:53:04;4.93;;;2.53;;
8825;SDS011;4449;50.872;4.714;2023-07-16T00:55:33;3.70;;;2.78;;
8825;SDS011;4449;50.872;4.714;2023-07-16T00:58:01;5.28;;;2.95;;
8825;SDS011;4449;50.872;4.714;2023-07-16T01:00:30;7.72;;;2.65;;
8825;SDS011;4449;50.872;4.714;2023-07-16T01:02:58;4.90;;;2.67;;
8825;SDS011;4449;50.872;4.714;2023-07-16T01:05:34;4.25;;;2.50;;
8825;SDS011;4449;50.872;4.714;2023-07-16T01:08:04;4.90;;;2.65;;
8825;SDS011;4449;50.872;4.714;2023-07-16T01:10:32;4.35;;;2.70;;
8825;SDS011;4449;50.872;4.714;2023-07-16T01:13:00;3.28;;;2.40;;
8825;SDS011;4449;50.872;4.714;2023-07-16T01:15:28;3.15;;;2.80;;
8825;SDS011;4449;50.872;4.714;2023-07-16T01:17:55;7.78;;;2.88;;
8825;SDS011;4449;50.872;4.714;2023-07-16T01:20:23;5.13;;;2.42;;
8825;SDS011;4449;50.872;4.714;2023-07-16T01:22:59;5.05;;;2.53;;
8825;SDS011;4449;50.872;4.714;2023-07-16T01:25:36;3.88;;;2.58;;
8825;SDS011;4449;50.872;4.714;2023-07-16T01:28:14;4.87;;;2.47;;
8825;SDS011;4449;50.872;4.714;2023-07-16T01:30:45;6.38;;;2.55;;
8825;SDS011;4449;50.872;4.714;2023-07-16T01:33:14;6.43;;;2.88;;
8825;SDS011;4449;50.872;4.714;2023-07-16T01:35:44;3.97;;;2.70;;
8825;SDS011;4449;50.872;4.714;2023-07-16T01:38:12;7.00;;;3.00;;
8825;SDS011;4449;50.872;4.714;2023-07-16T01:40:41;6.10;;;3.15;;
8825;SDS011;4449;50.872;4.714;2023-07-16T01:43:09;5.00;;;2.72;;
8825;SDS011;4449;50.872;4.714;2023-07-16T01:45:37;5.43;;;2.83;;
8825;SDS011;4449;50.872;4.714;2023-07-16T01:48:09;7.65;;;3.05;;
8825;SDS011;4449;50.872;4.714;2023-07-16T01:50:40;5.82;;;2.90;;
8825;SDS011;4449;50.872;4.714;2023-07-16T01:53:08;5.18;;;2.78;;
8825;SDS011;4449;50.872;4.714;2023-07-16T01:55:36;6.68;;;2.50;;
8825;SDS011;4449;50.872;4.714;2023-07-16T01:58:04;5.70;;;2.38;;
8825;SDS011;4449;50.872;4.714;2023-07-16T02:00:33;6.78;;;3.00;;
8825;SDS011;4449;50.872;4.714;2023-07-16T02:03:01;3.50;;;2.87;;
8825;SDS011;4449;50.872;4.714;2023-07-16T02:05:30;4.53;;;2.60;;
8825;SDS011;4449;50.872;4.714;2023-07-16T02:07:58;5.65;;;2.78;;
8825;SDS011;4449;50.872;4.714;2023-07-16T02:10:25;9.50;;;3.65;;
8825;SDS011;4449;50.872;4.714;2023-07-16T02:12:53;8.33;;;2.80;;
8825;SDS011;4449;50.872;4.714;2023-07-16T02:15:21;7.28;;;3.92;;
8825;SDS011;4449;50.872;4.714;2023-07-16T02:17:49;9.32;;;3.05;;
8825;SDS011;4449;50.872;4.714;2023-07-16T02:20:16;6.85;;;2.80;;
8825;SDS011;4449;50.872;4.714;2023-07-16T02:22:46;8.63;;;3.38;;
8825;SDS011;4449;50.872;4.714;2023-07-16T02:25:14;6.85;;;2.90;;
8825;SDS011;4449;50.872;4.714;2023-07-16T02:27:41;7.72;;;3.63;;
8825;SDS011;4449;50.872;4.714;2023-07-16T02:30:09;5.50;;;3.20;;
8825;SDS011;4449;50.872;4.714;2023-07-16T02:32:37;6.57;;;3.53;;
8825;SDS011;4449;50.872;4.714;2023-07-16T02:35:05;7.17;;;3.50;;
8825;SDS011;4449;50.872;4.714;2023-07-16T02:37:33;6.30;;;3.45;;
8825;SDS011;4449;50.872;4.714;2023-07-16T02:40:03;6.55;;;3.60;;
8825;SDS011;4449;50.872;4.714;2023-07-16T02:42:30;10.23;;;3.97;;
8825;SDS011;4449;50.872;4.714;2023-07-16T02:44:58;5.95;;;3.53;;
8825;SDS011;4449;50.872;4.714;2023-07-16T02:47:26;7.67;;;3.87;;
8825;SDS011;4449;50.872;4.714;2023-07-16T02:49:53;6.15;;;3.78;;
8825;SDS011;4449;50.872;4.714;2023-07-16T02:52:21;8.70;;;4.15;;
8825;SDS011;4449;50.872;4.714;2023-07-16T02:54:49;8.67;;;3.80;;
8825;SDS011;4449;50.872;4.714;2023-07-16T02:57:18;7.00;;;3.65;;
8825;SDS011;4449;50.872;4.714;2023-07-16T02:59:45;9.57;;;4.18;;
8825;SDS011;4449;50.872;4.714;2023-07-16T03:02:13;7.28;;;4.05;;
8825;SDS011;4449;50.872;4.714;2023-07-16T03:04:41;6.63;;;4.00;;
8825;SDS011;4449;50.872;4.714;2023-07-16T03:07:09;4.87;;;3.97;;
8825;SDS011;4449;50.872;4.714;2023-07-16T03:09:39;7.50;;;3.65;;
8825;SDS011;4449;50.872;4.714;2023-07-16T03:12:07;7.35;;;3.70;;
8825;SDS011;4449;50.872;4.714;2023-07-16T03:14:36;4.45;;;3.53;;
8825;SDS011;4449;50.872;4.714;2023-07-16T03:17:04;7.40;;;3.90;;
8825;SDS011;4449;50.872;4.714;2023-07-16T03:19:32;7.53;;;3.70;;
8825;SDS011;4449;50.872;4.714;2023-07-16T03:22:02;7.05;;;3.80;;
8825;SDS011;4449;50.872;4.714;2023-07-16T03:24:29;9.35;;;4.05;;
8825;SDS011;4449;50.872;4.714;2023-07-16T03:26:57;8.50;;;3.65;;
8825;SDS011;4449;50.872;4.714;2023-07-16T03:29:24;6.40;;;3.47;;
8825;SDS011;4449;50.872;4.714;2023-07-16T03:31:54;7.63;;;3.90;;
8825;SDS011;4449;50.872;4.714;2023-07-16T03:34:21;8.10;;;4.05;;
8825;SDS011;4449;50.872;4.714;2023-07-16T03:36:49;8.13;;;4.38;;
8825;SDS011;4449;50.872;4.714;2023-07-16T03:39:17;5.03;;;3.75;;
8825;SDS011;4449;50.872;4.714;2023-07-16T03:41:45;9.75;;;3.78;;
8825;SDS011;4449;50.872;4.714;2023-07-16T03:44:12;8.67;;;3.87;;
8825;SDS011;4449;50.872;4.714;2023-07-16T03:46:40;7.90;;;3.97;;
8825;SDS011;4449;50.872;4.714;2023-07-16T03:49:09;4.40;;;3.92;;
8825;SDS011;4449;50.872;4.714;2023-07-16T03:51:37;6.03;;;3.90;;
8825;SDS011;4449;50.872;4.714;2023-07-16T03:54:05;6.10;;;4.15;;
8825;SDS011;4449;50.872;4.714;2023-07-16T03:56:33;9.80;;;4.45;;
8825;SDS011;4449;50.872;4.714;2023-07-16T03:59:01;8.93;;;4.05;;
8825;SDS011;4449;50.872;4.714;2023-07-16T04:01:28;11.23;;;4.20;;
8825;SDS011;4449;50.872;4.714;2023-07-16T04:03:56;6.95;;;3.65;;
8825;SDS011;4449;50.872;4.714;2023-07-16T04:06:26;9.60;;;4.30;;
8825;SDS011;4449;50.872;4.714;2023-07-16T04:08:53;11.40;;;4.70;;
8825;SDS011;4449;50.872;4.714;2023-07-16T04:11:23;8.40;;;4.28;;
8825;SDS011;4449;50.872;4.714;2023-07-16T04:13:51;7.45;;;4.18;;
8825;SDS011;4449;50.872;4.714;2023-07-16T04:16:18;7.97;;;3.95;;
8825;SDS011;4449;50.872;4.714;2023-07-16T04:18:46;12.88;;;5.00;;
8825;SDS011;4449;50.872;4.714;2023-07-16T04:21:14;8.07;;;4.43;;
8825;SDS011;4449;50.872;4.714;2023-07-16T04:23:43;9.65;;;4.30;;
8825;SDS011;4449;50.872;4.714;2023-07-16T04:26:11;9.25;;;4.90;;
8825;SDS011;4449;50.872;4.714;2023-07-16T04:28:39;9.68;;;4.47;;
8825;SDS011;4449;50.872;4.714;2023-07-16T04:31:06;7.83;;;4.77;;
8825;SDS011;4449;50.872;4.714;2023-07-16T04:33:34;10.13;;;4.40;;
8825;SDS011;4449;50.872;4.714;2023-07-16T04:36:02;9.23;;;5.07;;
8825;SDS011;4449;50.872;4.714;2023-07-16T04:38:30;7.27;;;4.67;;
8825;SDS011;4449;50.872;4.714;2023-07-16T04:40:59;8.23;;;4.85;;
8825;SDS011;4449;50.872;4.714;2023-07-16T04:43:27;9.82;;;5.00;;
8825;SDS011;4449;50.872;4.714;2023-07-16T04:45:55;8.93;;;4.78;;
8825;SDS011;4449;50.872;4.714;2023-07-16T04:48:22;10.98;;;4.70;;
8825;SDS011;4449;50.872;4.714;2023-07-16T04:50:50;7.75;;;4.72;;
8825;SDS011;4449;50.872;4.714;2023-07-16T04:53:18;7.40;;;4.53;;
8825;SDS011;4449;50.872;4.714;2023-07-16T04:55:46;9.30;;;4.80;;
8825;SDS011;4449;50.872;4.714;2023-07-16T04:58:16;9.63;;;5.32;;
8825;SDS011;4449;50.872;4.714;2023-07-16T05:00:43;8.65;;;5.03;;
8825;SDS011;4449;50.872;4.714;2023-07-16T05:03:12;7.38;;;5.55;;
8825;SDS011;4449;50.872;4.714;2023-07-16T05:05:40;17.58;;;6.07;;
8825;SDS011;4449;50.872;4.714;2023-07-16T05:08:07;8.73;;;5.00;;
8825;SDS011;4449;50.872;4.714;2023-07-16T05:10:35;8.60;;;5.65;;
8825;SDS011;4449;50.872;4.714;2023-07-16T05:13:03;11.85;;;5.32;;
8825;SDS011;4449;50.872;4.714;2023-07-16T05:15:33;12.88;;;5.78;;
8825;SDS011;4449;50.872;4.714;2023-07-16T05:18:00;10.65;;;5.78;;
8825;SDS011;4449;50.872;4.714;2023-07-16T05:20:28;10.25;;;5.43;;
8825;SDS011;4449;50.872;4.714;2023-07-16T05:22:56;10.30;;;5.57;;
8825;SDS011;4449;50.872;4.714;2023-07-16T05:25:24;10.02;;;6.18;;
8825;SDS011;4449;50.872;4.714;2023-07-16T05:27:52;13.97;;;5.90;;
8825;SDS011;4449;50.872;4.714;2023-07-16T05:30:19;8.70;;;6.03;;
8825;SDS011;4449;50.872;4.714;2023-07-16T05:32:48;10.48;;;6.25;;
8825;SDS011;4449;50.872;4.714;2023-07-16T05:35:16;8.65;;;5.32;;
8825;SDS011;4449;50.872;4.714;2023-07-16T05:37:44;10.40;;;5.70;;
8825;SDS011;4449;50.872;4.714;2023-07-16T05:40:12;8.52;;;5.32;;
8825;SDS011;4449;50.872;4.714;2023-07-16T05:42:39;10.10;;;5.63;;
8825;SDS011;4449;50.872;4.714;2023-07-16T05:45:07;11.30;;;6.33;;
8825;SDS011;4449;50.872;4.714;2023-07-16T05:47:35;12.70;;;6.43;;
8825;SDS011;4449;50.872;4.714;2023-07-16T05:50:05;11.00;;;5.80;;
8825;SDS011;4449;50.872;4.714;2023-07-16T05:52:33;11.88;;;6.07;;
8825;SDS011;4449;50.872;4.714;2023-07-16T05:55:02;10.43;;;6.57;;
8825;SDS011;4449;50.872;4.714;2023-07-16T05:57:29;10.35;;;6.22;;
8825;SDS011;4449;50.872;4.714;2023-07-16T05:59:57;8.55;;;5.95;;
8825;SDS011;4449;50.872;4.714;2023-07-16T06:02:25;8.00;;;5.82;;
8825;SDS011;4449;50.872;4.714;2023-07-16T06:04:52;10.65;;;6.07;;
8825;SDS011;4449;50.872;4.714;2023-07-16T06:07:21;9.27;;;5.93;;
8825;SDS011;4449;50.872;4.714;2023-07-16T06:09:49;12.85;;;6.68;;
8825;SDS011;4449;50.872;4.714;2023-07-16T06:12:17;9.35;;;6.72;;
8825;SDS011;4449;50.872;4.714;2023-07-16T06:14:45;9.98;;;6.10;;
8825;SDS011;4449;50.872;4.714;2023-07-16T06:17:13;11.75;;;6.40;;
8825;SDS011;4449;50.872;4.714;2023-07-16T06:19:41;8.60;;;5.53;;
8825;SDS011;4449;50.872;4.714;2023-07-16T06:22:08;11.68;;;6.18;;
8825;SDS011;4449;50.872;4.714;2023-07-16T06:24:37;10.13;;;6.30;;
8825;SDS011;4449;50.872;4.714;2023-07-16T06:27:05;8.95;;;5.72;;
8825;SDS011;4449;50.872;4.714;2023-07-16T06:29:33;8.68;;;5.80;;
8825;SDS011;4449;50.872;4.714;2023-07-16T06:32:01;10.57;;;6.28;;
8825;SDS011;4449;50.872;4.714;2023-07-16T06:34:29;10.48;;;6.07;;
8825;SDS011;4449;50.872;4.714;2023-07-16T06:36:56;10.33;;;6.07;;
8825;SDS011;4449;50.872;4.714;2023-07-16T06:39:24;10.50;;;6.20;;
8825;SDS011;4449;50.872;4.714;2023-07-16T06:41:53;10.05;;;6.35;;
8825;SDS011;4449;50.872;4.714;2023-07-16T06:44:21;12.63;;;5.97;;
8825;SDS011;4449;50.872;4.714;2023-07-16T06:46:49;12.07;;;6.78;;
8825;SDS011;4449;50.872;4.714;2023-07-16T06:49:18;12.48;;;6.75;;
8825;SDS011;4449;50.872;4.714;2023-07-16T06:51:46;11.00;;;6.25;;
8825;SDS011;4449;50.872;4.714;2023-07-16T06:54:16;10.57;;;6.30;;
8825;SDS011;4449;50.872;4.714;2023-07-16T06:56:44;10.40;;;6.00;;
8825;SDS011;4449;50.872;4.714;2023-07-16T06:59:13;9.23;;;6.10;;
8825;SDS011;4449;50.872;4.714;2023-07-16T07:01:41;10.73;;;6.22;;
8825;SDS011;4449;50.872;4.714;2023-07-16T07:04:09;10.43;;;6.30;;
8825;SDS011;4449;50.872;4.714;2023-07-16T07:06:36;12.50;;;6.07;;
8825;SDS011;4449;50.872;4.714;2023-07-16T07:09:04;11.93;;;6.28;;
8825;SDS011;4449;50.872;4.714;2023-07-16T07:11:34;13.35;;;6.93;;
8825;SDS011;4449;50.872;4.714;2023-07-16T07:14:01;9.63;;;5.78;;
8825;SDS011;4449;50.872;4.714;2023-07-16T07:16:33;8.65;;;5.70;;
8825;SDS011;4449;50.872;4.714;2023-07-16T07:19:01;8.20;;;5.78;;
8825;SDS011;4449;50.872;4.714;2023-07-16T07:21:34;11.68;;;6.80;;
8825;SDS011;4449;50.872;4.714;2023-07-16T07:24:02;9.60;;;5.78;;
8825;SDS011;4449;50.872;4.714;2023-07-16T07:26:29;9.03;;;6.37;;
8825;SDS011;4449;50.872;4.714;2023-07-16T07:28:59;8.65;;;6.18;;
8825;SDS011;4449;50.872;4.714;2023-07-16T07:31:26;7.95;;;6.03;;
8825;SDS011;4449;50.872;4.714;2023-07-16T07:33:58;10.38;;;5.80;;
8825;SDS011;4449;50.872;4.714;2023-07-16T07:36:26;11.18;;;6.15;;
8825;SDS011;4449;50.872;4.714;2023-07-16T07:38:55;9.85;;;6.65;;
8825;SDS011;4449;50.872;4.714;2023-07-16T07:41:23;10.85;;;6.32;;
8825;SDS011;4449;50.872;4.714;2023-07-16T07:43:51;8.20;;;5.70;;
8825;SDS011;4449;50.872;4.714;2023-07-16T07:46:18;9.77;;;6.05;;
8825;SDS011;4449;50.872;4.714;2023-07-16T07:48:46;11.07;;;6.43;;
8825;SDS011;4449;50.872;4.714;2023-07-16T07:51:15;10.60;;;6.20;;
8825;SDS011;4449;50.872;4.714;2023-07-16T07:53:45;7.67;;;5.13;;
8825;SDS011;4449;50.872;4.714;2023-07-16T07:56:13;11.77;;;6.28;;
8825;SDS011;4449;50.872;4.714;2023-07-16T07:58:40;12.57;;;6.32;;
8825;SDS011;4449;50.872;4.714;2023-07-16T08:01:08;10.63;;;6.00;;
8825;SDS011;4449;50.872;4.714;2023-07-16T08:03:38;9.73;;;5.63;;
8825;SDS011;4449;50.872;4.714;2023-07-16T08:06:06;7.88;;;5.65;;
8825;SDS011;4449;50.872;4.714;2023-07-16T08:08:38;9.43;;;5.20;;
8825;SDS011;4449;50.872;4.714;2023-07-16T08:11:05;8.25;;;5.57;;
8825;SDS011;4449;50.872;4.714;2023-07-16T08:13:33;6.40;;;5.55;;
8825;SDS011;4449;50.872;4.714;2023-07-16T08:16:01;5.87;;;4.93;;
8825;SDS011;4449;50.872;4.714;2023-07-16T08:18:29;8.00;;;4.95;;
8825;SDS011;4449;50.872;4.714;2023-07-16T08:20:57;8.43;;;5.15;;
8825;SDS011;4449;50.872;4.714;2023-07-16T08:23:24;7.30;;;5.72;;
8825;SDS011;4449;50.872;4.714;2023-07-16T08:25:54;6.22;;;5.20;;
8825;SDS011;4449;50.872;4.714;2023-07-16T08:28:21;6.57;;;5.20;;
8825;SDS011;4449;50.872;4.714;2023-07-16T08:30:49;10.30;;;5.22;;
8825;SDS011;4449;50.872;4.714;2023-07-16T08:33:17;8.13;;;5.10;;
8825;SDS011;4449;50.872;4.714;2023-07-16T08:35:45;7.03;;;5.40;;
8825;SDS011;4449;50.872;4.714;2023-07-16T08:38:12;5.97;;;4.80;;
8825;SDS011;4449;50.872;4.714;2023-07-16T08:40:40;7.78;;;5.10;;
8825;SDS011;4449;50.872;4.714;2023-07-16T08:43:09;7.72;;;5.15;;
8825;SDS011;4449;50.872;4.714;2023-07-16T08:45:38;7.43;;;5.45;;
8825;SDS011;4449;50.872;4.714;2023-07-16T08:48:08;7.10;;;4.53;;
8825;SDS011;4449;50.872;4.714;2023-07-16T08:50:36;6.68;;;4.95;;
8825;SDS011;4449;50.872;4.714;2023-07-16T08:53:04;10.25;;;5.00;;
8825;SDS011;4449;50.872;4.714;2023-07-16T08:55:32;7.55;;;4.63;;
8825;SDS011;4449;50.872;4.714;2023-07-16T08:58:02;6.38;;;4.90;;
8825;SDS011;4449;50.872;4.714;2023-07-16T09:00:32;5.55;;;4.95;;
8825;SDS011;4449;50.872;4.714;2023-07-16T09:02:59;7.95;;;4.90;;
8825;SDS011;4449;50.872;4.714;2023-07-16T09:05:27;5.78;;;4.70;;
8825;SDS011;4449;50.872;4.714;2023-07-16T09:07:56;5.30;;;4.55;;
8825;SDS011;4449;50.872;4.714;2023-07-16T09:10:24;5.07;;;4.32;;
8825;SDS011;4449;50.872;4.714;2023-07-16T09:12:51;7.40;;;4.50;;
8825;SDS011;4449;50.872;4.714;2023-07-16T09:27:18;5.40;;;4.65;;
8825;SDS011;4449;50.872;4.714;2023-07-16T09:29:47;5.20;;;4.70;;
8825;SDS011;4449;50.872;4.714;2023-07-16T09:32:14;8.95;;;4.85;;
8825;SDS011;4449;50.872;4.714;2023-07-16T09:34:42;4.95;;;4.30;;
8825;SDS011;4449;50.872;4.714;2023-07-16T09:37:10;7.27;;;4.60;;
8825;SDS011;4449;50.872;4.714;2023-07-16T09:39:38;5.53;;;4.13;;
8825;SDS011;4449;50.872;4.714;2023-07-16T09:42:06;7.50;;;4.10;;
8825;SDS011;4449;50.872;4.714;2023-07-16T12:12:38;4.30;;;3.90;;
8825;SDS011;4449;50.872;4.714;2023-07-16T12:15:07;5.67;;;3.73;;
8825;SDS011;4449;50.872;4.714;2023-07-16T12:17:34;5.35;;;3.90;;
8825;SDS011;4449;50.872;4.714;2023-07-16T12:20:02;5.88;;;3.83;;
8825;SDS011;4449;50.872;4.714;2023-07-16T12:22:30;5.43;;;3.50;;
8825;SDS011;4449;50.872;4.714;2023-07-16T12:24:58;6.05;;;4.20;;
8825;SDS011;4449;50.872;4.714;2023-07-16T12:27:26;4.50;;;3.85;;
8825;SDS011;4449;50.872;4.714;2023-07-16T12:29:55;4.97;;;4.00;;
8825;SDS011;4449;50.872;4.714;2023-07-16T12:32:23;6.40;;;4.10;;
8825;SDS011;4449;50.872;4.714;2023-07-16T12:34:51;5.80;;;4.35;;
8825;SDS011;4449;50.872;4.714;2023-07-16T12:37:20;6.05;;;3.78;;
8825;SDS011;4449;50.872;4.714;2023-07-16T12:39:48;5.60;;;3.60;;
8825;SDS011;4449;50.872;4.714;2023-07-16T12:42:16;5.75;;;4.07;;
8825;SDS011;4449;50.872;4.714;2023-07-16T12:44:43;6.72;;;3.78;;
8825;SDS011;4449;50.872;4.714;2023-07-16T12:47:13;6.20;;;4.10;;
8825;SDS011;4449;50.872;4.714;2023-07-16T12:49:40;4.45;;;3.90;;
8825;SDS011;4449;50.872;4.714;2023-07-16T12:52:08;7.43;;;3.53;;
8825;SDS011;4449;50.872;4.714;2023-07-16T12:54:36;5.43;;;3.92;;
8825;SDS011;4449;50.872;4.714;2023-07-16T12:57:04;6.00;;;3.83;;
8825;SDS011;4449;50.872;4.714;2023-07-16T12:59:32;6.03;;;3.93;;
8825;SDS011;4449;50.872;4.714;2023-07-16T13:02:00;7.15;;;3.85;;
8825;SDS011;4449;50.872;4.714;2023-07-16T13:04:29;4.95;;;3.75;;
8825;SDS011;4449;50.872;4.714;2023-07-16T13:06:57;3.97;;;3.60;;
8825;SDS011;4449;50.872;4.714;2023-07-16T13:09:24;8.95;;;4.05;;
8825;SDS011;4449;50.872;4.714;2023-07-16T13:11:52;5.90;;;3.55;;
8825;SDS011;4449;50.872;4.714;2023-07-16T13:14:20;6.00;;;3.88;;
8825;SDS011;4449;50.872;4.714;2023-07-16T13:16:47;4.07;;;3.60;;
8825;SDS011;4449;50.872;4.714;2023-07-16T13:19:15;4.47;;;4.03;;
8825;SDS011;4449;50.872;4.714;2023-07-16T13:21:44;5.30;;;3.83;;
8825;SDS011;4449;50.872;4.714;2023-07-16T13:24:12;4.47;;;4.00;;
8825;SDS011;4449;50.872;4.714;2023-07-16T13:26:40;5.00;;;3.92;;
8825;SDS011;4449;50.872;4.714;2023-07-16T13:29:07;5.28;;;3.97;;
8825;SDS011;4449;50.872;4.714;2023-07-16T13:31:35;4.03;;;3.40;;
8825;SDS011;4449;50.872;4.714;2023-07-16T13:34:03;3.80;;;3.50;;
8825;SDS011;4449;50.872;4.714;2023-07-16T13:36:31;6.32;;;3.75;;
8825;SDS011;4449;50.872;4.714;2023-07-16T13:39:00;5.03;;;3.40;;
8825;SDS011;4449;50.872;4.714;2023-07-16T13:41:28;4.57;;;3.63;;
8825;SDS011;4449;50.872;4.714;2023-07-16T13:43:55;4.80;;;3.47;;
8825;SDS011;4449;50.872;4.714;2023-07-16T13:46:23;4.60;;;3.35;;
8825;SDS011;4449;50.872;4.714;2023-07-16T13:48:51;4.82;;;3.38;;
8825;SDS011;4449;50.872;4.714;2023-07-16T13:51:19;3.47;;;3.17;;
8825;SDS011;4449;50.872;4.714;2023-07-16T13:53:46;3.55;;;3.05;;
8825;SDS011;4449;50.872;4.714;2023-07-16T13:56:16;3.50;;;3.20;;
8825;SDS011;4449;50.872;4.714;2023-07-16T13:58:43;3.50;;;3.20;;
8825;SDS011;4449;50.872;4.714;2023-07-16T14:01:11;4.32;;;3.28;;
8825;SDS011;4449;50.872;4.714;2023-07-16T14:03:39;4.03;;;3.10;;
8825;SDS011;4449;50.872;4.714;2023-07-16T14:06:07;4.95;;;3.33;;
8825;SDS011;4449;50.872;4.714;2023-07-16T14:08:34;3.83;;;3.30;;
8825;SDS011;4449;50.872;4.714;2023-07-16T14:11:02;3.53;;;3.08;;
8825;SDS011;4449;50.872;4.714;2023-07-16T14:13:31;3.85;;;3.45;;
8825;SDS011;4449;50.872;4.714;2023-07-16T14:15:59;3.67;;;3.30;;
8825;SDS011;4449;50.872;4.714;2023-07-16T14:18:28;3.63;;;3.33;;
8825;SDS011;4449;50.872;4.714;2023-07-16T14:20:56;3.60;;;3.30;;
8825;SDS011;4449;50.872;4.714;2023-07-16T14:23:25;5.28;;;3.30;;
8825;SDS011;4449;50.872;4.714;2023-07-16T14:25:53;4.30;;;3.53;;
8825;SDS011;4449;50.872;4.714;2023-07-16T14:28:20;5.30;;;3.08;;
8825;SDS011;4449;50.872;4.714;2023-07-16T14:30:49;5.23;;;3.20;;
8825;SDS011;4449;50.872;4.714;2023-07-16T14:33:17;4.30;;;3.13;;
8825;SDS011;4449;50.872;4.714;2023-07-16T14:35:45;3.67;;;3.25;;
8825;SDS011;4449;50.872;4.714;2023-07-16T14:38:13;4.95;;;3.00;;
8825;SDS011;4449;50.872;4.714;2023-07-16T14:40:40;4.13;;;2.78;;
8825;SDS011;4449;50.872;4.714;2023-07-16T14:43:08;4.03;;;3.08;;
8825;SDS011;4449;50.872;4.714;2023-07-16T14:45:36;3.22;;;3.00;;
8825;SDS011;4449;50.872;4.714;2023-07-16T14:48:05;3.92;;;2.85;;
8825;SDS011;4449;50.872;4.714;2023-07-16T14:50:35;4.33;;;3.13;;
8825;SDS011;4449;50.872;4.714;2023-07-16T14:53:04;4.45;;;2.78;;
8825;SDS011;4449;50.872;4.714;2023-07-16T14:55:32;4.05;;;2.90;;
8825;SDS011;4449;50.872;4.714;2023-07-16T14:57:59;5.73;;;3.10;;
8825;SDS011;4449;50.872;4.714;2023-07-16T15:00:29;3.42;;;3.00;;
8825;SDS011;4449;50.872;4.714;2023-07-16T15:02:56;3.38;;;3.08;;
8825;SDS011;4449;50.872;4.714;2023-07-16T15:05:26;4.07;;;2.92;;
8825;SDS011;4449;50.872;4.714;2023-07-16T15:07:53;3.40;;;3.10;;
8825;SDS011;4449;50.872;4.714;2023-07-16T15:10:21;3.40;;;2.78;;
8825;SDS011;4449;50.872;4.714;2023-07-16T15:12:49;4.05;;;3.40;;
8825;SDS011;4449;50.872;4.714;2023-07-16T15:15:17;3.72;;;3.00;;
8825;SDS011;4449;50.872;4.714;2023-07-16T15:17:45;4.38;;;3.13;;
8825;SDS011;4449;50.872;4.714;2023-07-16T15:20:12;3.88;;;3.50;;
8825;SDS011;4449;50.872;4.714;2023-07-16T15:22:42;5.10;;;3.28;;
8825;SDS011;4449;50.872;4.714;2023-07-16T15:25:09;3.88;;;3.20;;
8825;SDS011;4449;50.872;4.714;2023-07-16T15:42:57;4.77;;;3.23;;
8825;SDS011;4449;50.872;4.714;2023-07-16T15:45:25;5.67;;;3.63;;
8825;SDS011;4449;50.872;4.714;2023-07-16T15:47:52;5.83;;;3.43;;
8825;SDS011;4449;50.872;4.714;2023-07-16T15:50:22;5.30;;;3.67;;
8825;SDS011;4449;50.872;4.714;2023-07-16T15:52:50;6.20;;;3.73;;
8825;SDS011;4449;50.872;4.714;2023-07-16T15:55:18;4.57;;;4.10;;
8825;SDS011;4449;50.872;4.714;2023-07-16T15:57:47;4.53;;;3.87;;
8825;SDS011;4449;50.872;4.714;2023-07-16T16:00:17;3.73;;;3.37;;
8825;SDS011;4449;50.872;4.714;2023-07-16T16:02:47;8.03;;;3.83;;
8825;SDS011;4449;50.872;4.714;2023-07-16T16:05:16;4.43;;;3.70;;
8825;SDS011;4449;50.872;4.714;2023-07-16T16:07:44;6.57;;;3.77;;
8825;SDS011;4449;50.872;4.714;2023-07-16T16:10:13;7.00;;;4.00;;
8825;SDS011;4449;50.872;4.714;2023-07-16T16:12:41;4.53;;;3.37;;
8825;SDS011;4449;50.872;4.714;2023-07-16T16:15:09;3.90;;;3.60;;
8825;SDS011;4449;50.872;4.714;2023-07-16T16:17:38;8.50;;;3.80;;
8825;SDS011;4449;50.872;4.714;2023-07-16T16:20:07;7.07;;;3.97;;
8825;SDS011;4449;50.872;4.714;2023-07-16T21:59:36;5.18;;;3.67;;
8825;SDS011;4449;50.872;4.714;2023-07-16T22:02:04;6.13;;;3.80;;
8825;SDS011;4449;50.872;4.714;2023-07-16T22:04:31;3.90;;;3.55;;
8825;SDS011;4449;50.872;4.714;2023-07-16T22:06:59;3.97;;;3.60;;
8825;SDS011;4449;50.872;4.714;2023-07-16T22:09:27;5.85;;;4.03;;
8825;SDS011;4449;50.872;4.714;2023-07-16T22:11:55;4.87;;;3.57;;
8825;SDS011;4449;50.872;4.714;2023-07-16T22:14:23;7.63;;;4.30;;
8825;SDS011;4449;50.872;4.714;2023-07-16T22:16:52;4.03;;;3.43;;
8825;SDS011;4449;50.872;4.714;2023-07-16T22:19:20;4.50;;;3.33;;
8825;SDS011;4449;50.872;4.714;2023-07-16T22:21:48;5.10;;;3.45;;
8825;SDS011;4449;50.872;4.714;2023-07-16T22:24:16;4.07;;;3.55;;
8825;SDS011;4449;50.872;4.714;2023-07-16T22:26:44;3.80;;;3.50;;
8825;SDS011;4449;50.872;4.714;2023-07-16T22:29:11;4.07;;;3.78;;
8825;SDS011;4449;50.872;4.714;2023-07-16T22:31:39;4.55;;;3.75;;
8825;SDS011;4449;50.872;4.714;2023-07-16T22:34:08;4.35;;;3.95;;
8825;SDS011;4449;50.872;4.714;2023-07-16T22:36:41;4.43;;;3.83;;
8825;SDS011;4449;50.872;4.714;2023-07-16T22:39:08;4.03;;;3.40;;
8825;SDS011;4449;50.872;4.714;2023-07-16T22:41:37;4.27;;;3.67;;
8825;SDS011;4449;50.872;4.714;2023-07-16T22:44:04;6.45;;;3.60;;
8825;SDS011;4449;50.872;4.714;2023-07-16T22:46:32;5.65;;;3.85;;
8825;SDS011;4449;50.872;4.714;2023-07-16T22:49:00;3.83;;;3.53;;
8825;SDS011;4449;50.872;4.714;2023-07-16T22:51:30;3.80;;;3.50;;
8825;SDS011;4449;50.872;4.714;2023-07-16T22:53:58;5.63;;;3.67;;
8825;SDS011;4449;50.872;4.714;2023-07-16T22:56:27;3.80;;;3.30;;
8825;SDS011;4449;50.872;4.714;2023-07-16T22:58:55;4.67;;;3.53;;
8825;SDS011;4449;50.872;4.714;2023-07-16T23:01:23;5.55;;;3.65;;
8825;SDS011;4449;50.872;4.714;2023-07-16T23:03:51;4.10;;;3.70;;
8825;SDS011;4449;50.872;4.714;2023-07-16T23:06:19;7.43;;;3.40;;
8825;SDS011;4449;50.872;4.714;2023-07-16T23:08:48;3.40;;;3.17;;
8825;SDS011;4449;50.872;4.714;2023-07-16T23:11:16;6.07;;;3.63;;
8825;SDS011;4449;50.872;4.714;2023-07-16T23:13:43;3.95;;;3.13;;
8825;SDS011;4449;50.872;4.714;2023-07-16T23:16:11;5.30;;;3.53;;
8825;SDS011;4449;50.872;4.714;2023-07-16T23:18:40;6.00;;;3.63;;
8825;SDS011;4449;50.872;4.714;2023-07-16T23:21:09;4.45;;;3.47;;
8825;SDS011;4449;50.872;4.714;2023-07-16T23:23:38;3.50;;;3.20;;
8825;SDS011;4449;50.872;4.714;2023-07-16T23:26:07;4.85;;;3.83;;
8825;SDS011;4449;50.872;4.714;2023-07-16T23:56:18;6.47;;;3.38;;
8825;SDS011;4449;50.872;4.714;2023-07-16T23:58:47;6.57;;;3.55;;
